sensor_id;sensor_type;location;lat;lon;timestamp;pressure;altitude;pressure_sealevel;temperature;humidity
77685;BME280;66844;46.092;18.268;2023-02-28T00:00:13;100291.13;;;0.03;88.87
77685;BME280;66844;46.092;18.268;2023-02-28T00:00:46;100290.25;;;0.07;88.87
77685;BME280;66844;46.092;18.268;2023-02-28T00:01:17;100295.47;;;0.06;88.54
77685;BME280;66844;46.092;18.268;2023-02-28T00:01:49;100294.59;;;0.05;88.72
77685;BME280;66844;46.092;18.268;2023-02-28T00:02:21;100284.09;;;0.08;88.87
77685;BME280;66844;46.092;18.268;2023-02-28T00:02:53;100285.00;;;0.03;88.24
77685;BME280;66844;46.092;18.268;2023-02-28T00:03:25;100289.34;;;0.10;87.94
77685;BME280;66844;46.092;18.268;2023-02-28T00:03:57;100288.47;;;0.11;88.70
77685;BME280;66844;46.092;18.268;2023-02-28T00:04:28;100287.63;;;0.07;88.69
77685;BME280;66844;46.092;18.268;2023-02-28T00:05:01;100290.25;;;0.07;87.94
77685;BME280;66844;46.092;18.268;2023-02-28T00:05:34;100294.56;;;0.08;88.01
77685;BME280;66844;46.092;18.268;2023-02-28T00:06:07;100279.75;;;0.06;88.50
77685;BME280;66844;46.092;18.268;2023-02-28T00:06:39;100290.22;;;0.09;88.11
77685;BME280;66844;46.092;18.268;2023-02-28T00:07:10;100294.56;;;0.13;88.39
77685;BME280;66844;46.092;18.268;2023-02-28T00:07:42;100291.94;;;0.08;88.59
77685;BME280;66844;46.092;18.268;2023-02-28T00:08:14;100298.09;;;0.07;88.56
77685;BME280;66844;46.092;18.268;2023-02-28T00:08:46;100294.56;;;0.10;88.52
77685;BME280;66844;46.092;18.268;2023-02-28T00:09:18;100298.94;;;0.11;88.37
77685;BME280;66844;46.092;18.268;2023-02-28T00:09:50;100292.84;;;0.10;88.03
77685;BME280;66844;46.092;18.268;2023-02-28T00:10:25;100294.56;;;0.10;88.30
77685;BME280;66844;46.092;18.268;2023-02-28T00:11:05;100295.47;;;0.10;87.97
77685;BME280;66844;46.092;18.268;2023-02-28T00:11:37;100298.91;;;0.12;87.93
77685;BME280;66844;46.092;18.268;2023-02-28T00:12:09;100287.59;;;0.06;88.17
77685;BME280;66844;46.092;18.268;2023-02-28T00:12:51;100297.19;;;0.13;87.78
77685;BME280;66844;46.092;18.268;2023-02-28T00:13:23;100300.69;;;0.07;88.45
77685;BME280;66844;46.092;18.268;2023-02-28T00:13:55;100292.81;;;0.09;87.84
77685;BME280;66844;46.092;18.268;2023-02-28T00:14:26;100299.81;;;0.11;88.74
77685;BME280;66844;46.092;18.268;2023-02-28T00:14:58;100301.56;;;0.03;88.62
77685;BME280;66844;46.092;18.268;2023-02-28T00:15:30;100298.94;;;0.06;88.32
77685;BME280;66844;46.092;18.268;2023-02-28T00:16:05;100300.69;;;0.06;88.82
77685;BME280;66844;46.092;18.268;2023-02-28T00:16:38;100298.09;;;0.07;87.97
77685;BME280;66844;46.092;18.268;2023-02-28T00:17:09;100299.81;;;0.05;88.42
77685;BME280;66844;46.092;18.268;2023-02-28T00:17:41;100297.22;;;0.04;88.45
77685;BME280;66844;46.092;18.268;2023-02-28T00:18:13;100292.84;;;-0.02;87.87
77685;BME280;66844;46.092;18.268;2023-02-28T00:18:45;100296.34;;;0.03;88.53
77685;BME280;66844;46.092;18.268;2023-02-28T00:19:19;100302.44;;;0.00;88.79
77685;BME280;66844;46.092;18.268;2023-02-28T00:19:51;100280.66;;;0.00;88.37
77685;BME280;66844;46.092;18.268;2023-02-28T00:20:24;100292.84;;;0.06;88.53
77685;BME280;66844;46.092;18.268;2023-02-28T00:20:57;100301.56;;;0.03;87.80
77685;BME280;66844;46.092;18.268;2023-02-28T00:21:29;100300.69;;;0.06;87.75
77685;BME280;66844;46.092;18.268;2023-02-28T00:22:01;100305.03;;;0.05;87.78
77685;BME280;66844;46.092;18.268;2023-02-28T00:22:33;100296.34;;;0.00;88.04
77685;BME280;66844;46.092;18.268;2023-02-28T00:23:05;100293.72;;;-0.03;88.01
77685;BME280;66844;46.092;18.268;2023-02-28T00:23:37;100285.03;;;-0.07;88.39
77685;BME280;66844;46.092;18.268;2023-02-28T00:24:09;100294.59;;;0.02;88.46
77685;BME280;66844;46.092;18.268;2023-02-28T00:24:40;100292.84;;;0.03;87.95
77685;BME280;66844;46.092;18.268;2023-02-28T00:25:16;100291.97;;;0.00;88.33
77685;BME280;66844;46.092;18.268;2023-02-28T00:25:48;100287.63;;;-0.05;88.57
77685;BME280;66844;46.092;18.268;2023-02-28T00:26:20;100299.84;;;-0.01;87.98
77685;BME280;66844;46.092;18.268;2023-02-28T00:26:52;100286.75;;;-0.06;88.07
77685;BME280;66844;46.092;18.268;2023-02-28T00:27:24;100291.13;;;-0.05;88.10
77685;BME280;66844;46.092;18.268;2023-02-28T00:27:56;100289.34;;;0.00;88.33
77685;BME280;66844;46.092;18.268;2023-02-28T00:28:28;100290.25;;;-0.02;87.83
77685;BME280;66844;46.092;18.268;2023-02-28T00:29:00;100287.63;;;-0.04;88.18
77685;BME280;66844;46.092;18.268;2023-02-28T00:29:31;100298.09;;;-0.02;87.63
77685;BME280;66844;46.092;18.268;2023-02-28T00:30:05;100287.63;;;-0.05;87.83
77685;BME280;66844;46.092;18.268;2023-02-28T00:30:38;100288.50;;;-0.02;87.87
77685;BME280;66844;46.092;18.268;2023-02-28T00:31:10;100300.72;;;-0.01;87.56
77685;BME280;66844;46.092;18.268;2023-02-28T00:31:42;100289.38;;;-0.01;87.73
77685;BME280;66844;46.092;18.268;2023-02-28T00:32:14;100286.75;;;-0.06;87.89
77685;BME280;66844;46.092;18.268;2023-02-28T00:32:46;100291.97;;;-0.03;88.21
77685;BME280;66844;46.092;18.268;2023-02-28T00:33:17;100289.38;;;-0.04;87.90
77685;BME280;66844;46.092;18.268;2023-02-28T00:33:49;100288.53;;;-0.12;87.51
77685;BME280;66844;46.092;18.268;2023-02-28T00:34:23;100296.34;;;-0.03;87.01
77685;BME280;66844;46.092;18.268;2023-02-28T00:34:55;100298.97;;;-0.02;87.50
77685;BME280;66844;46.092;18.268;2023-02-28T00:35:27;100287.63;;;-0.02;87.30
77685;BME280;66844;46.092;18.268;2023-02-28T00:36:04;100292.84;;;-0.02;87.55
77685;BME280;66844;46.092;18.268;2023-02-28T00:36:36;100298.06;;;0.01;86.86
77685;BME280;66844;46.092;18.268;2023-02-28T00:37:09;100303.34;;;-0.01;86.83
77685;BME280;66844;46.092;18.268;2023-02-28T00:37:43;100288.53;;;-0.08;87.33
77685;BME280;66844;46.092;18.268;2023-02-28T00:38:15;100298.94;;;-0.03;87.70
77685;BME280;66844;46.092;18.268;2023-02-28T00:38:47;100298.97;;;-0.06;87.93
77685;BME280;66844;46.092;18.268;2023-02-28T00:39:20;100297.25;;;-0.04;87.17
77685;BME280;66844;46.092;18.268;2023-02-28T00:39:52;100302.47;;;-0.04;87.24
77685;BME280;66844;46.092;18.268;2023-02-28T00:40:24;100298.97;;;-0.05;87.23
77685;BME280;66844;46.092;18.268;2023-02-28T00:40:56;100307.69;;;-0.01;86.84
77685;BME280;66844;46.092;18.268;2023-02-28T00:41:28;100310.28;;;0.00;86.96
77685;BME280;66844;46.092;18.268;2023-02-28T00:42:00;100311.16;;;-0.02;86.65
77685;BME280;66844;46.092;18.268;2023-02-28T00:42:34;100301.56;;;-0.02;86.80
77685;BME280;66844;46.092;18.268;2023-02-28T00:43:06;100310.28;;;-0.07;87.37
77685;BME280;66844;46.092;18.268;2023-02-28T00:43:38;100304.22;;;-0.05;87.24
77685;BME280;66844;46.092;18.268;2023-02-28T00:44:10;100298.94;;;-0.03;86.76
77685;BME280;66844;46.092;18.268;2023-02-28T00:44:42;100310.31;;;-0.06;87.06
77685;BME280;66844;46.092;18.268;2023-02-28T00:45:14;100305.97;;;-0.13;87.33
77685;BME280;66844;46.092;18.268;2023-02-28T00:45:46;100309.44;;;-0.11;86.44
77685;BME280;66844;46.092;18.268;2023-02-28T00:46:17;100305.94;;;-0.10;86.68
77685;BME280;66844;46.092;18.268;2023-02-28T00:46:49;100308.56;;;-0.10;87.27
77685;BME280;66844;46.092;18.268;2023-02-28T00:47:23;100306.81;;;-0.06;86.55
77685;BME280;66844;46.092;18.268;2023-02-28T00:47:54;100306.81;;;-0.05;86.56
77685;BME280;66844;46.092;18.268;2023-02-28T00:48:27;100306.81;;;-0.11;87.00
77685;BME280;66844;46.092;18.268;2023-02-28T00:48:59;100304.22;;;-0.08;86.59
77685;BME280;66844;46.092;18.268;2023-02-28T00:49:31;100313.78;;;-0.05;85.92
77685;BME280;66844;46.092;18.268;2023-02-28T00:50:03;100309.44;;;-0.08;86.22
77685;BME280;66844;46.092;18.268;2023-02-28T00:50:35;100301.56;;;-0.03;86.31
77685;BME280;66844;46.092;18.268;2023-02-28T00:51:07;100307.69;;;-0.07;86.12
77685;BME280;66844;46.092;18.268;2023-02-28T00:51:39;100300.72;;;-0.08;86.34
77685;BME280;66844;46.092;18.268;2023-02-28T00:52:11;100305.06;;;-0.07;86.15
77685;BME280;66844;46.092;18.268;2023-02-28T00:52:42;100308.56;;;-0.01;85.96
77685;BME280;66844;46.092;18.268;2023-02-28T00:53:15;100306.81;;;-0.05;85.82
77685;BME280;66844;46.092;18.268;2023-02-28T00:53:47;100302.47;;;-0.06;86.51
77685;BME280;66844;46.092;18.268;2023-02-28T00:54:19;100296.38;;;-0.12;85.89
77685;BME280;66844;46.092;18.268;2023-02-28T00:54:51;100311.16;;;-0.04;85.83
77685;BME280;66844;46.092;18.268;2023-02-28T00:55:23;100309.44;;;-0.05;85.65
77685;BME280;66844;46.092;18.268;2023-02-28T00:55:55;100302.47;;;-0.09;85.51
77685;BME280;66844;46.092;18.268;2023-02-28T00:56:27;100305.94;;;-0.10;85.94
77685;BME280;66844;46.092;18.268;2023-02-28T00:56:59;100309.44;;;-0.11;86.20
77685;BME280;66844;46.092;18.268;2023-02-28T00:57:33;100302.47;;;-0.13;85.79
77685;BME280;66844;46.092;18.268;2023-02-28T00:58:04;100305.09;;;-0.09;86.19
77685;BME280;66844;46.092;18.268;2023-02-28T00:58:36;100306.81;;;-0.05;86.04
77685;BME280;66844;46.092;18.268;2023-02-28T00:59:08;100308.53;;;-0.04;86.02
77685;BME280;66844;46.092;18.268;2023-02-28T00:59:40;100305.97;;;-0.08;85.67
77685;BME280;66844;46.092;18.268;2023-02-28T01:00:12;100314.66;;;-0.05;85.59
77685;BME280;66844;46.092;18.268;2023-02-28T01:00:44;100309.44;;;-0.09;85.69
77685;BME280;66844;46.092;18.268;2023-02-28T01:01:20;100315.53;;;-0.04;85.55
77685;BME280;66844;46.092;18.268;2023-02-28T01:01:52;100317.28;;;-0.06;85.16
77685;BME280;66844;46.092;18.268;2023-02-28T01:02:24;100305.06;;;-0.07;85.43
77685;BME280;66844;46.092;18.268;2023-02-28T01:02:56;100305.94;;;-0.05;85.92
77685;BME280;66844;46.092;18.268;2023-02-28T01:03:28;100308.56;;;-0.01;85.88
77685;BME280;66844;46.092;18.268;2023-02-28T01:03:59;100308.56;;;-0.02;85.14
77685;BME280;66844;46.092;18.268;2023-02-28T01:04:31;100312.03;;;-0.02;85.68
77685;BME280;66844;46.092;18.268;2023-02-28T01:05:03;100305.06;;;-0.06;85.06
77685;BME280;66844;46.092;18.268;2023-02-28T01:05:36;100305.94;;;-0.05;85.52
77685;BME280;66844;46.092;18.268;2023-02-28T01:06:08;100307.72;;;-0.12;85.27
77685;BME280;66844;46.092;18.268;2023-02-28T01:06:40;100309.44;;;-0.05;85.57
77685;BME280;66844;46.092;18.268;2023-02-28T01:07:12;100305.97;;;-0.08;84.76
77685;BME280;66844;46.092;18.268;2023-02-28T01:07:45;100302.47;;;-0.09;85.52
77685;BME280;66844;46.092;18.268;2023-02-28T01:08:17;100304.19;;;-0.11;85.83
77685;BME280;66844;46.092;18.268;2023-02-28T01:08:49;100316.41;;;-0.07;86.12
77685;BME280;66844;46.092;18.268;2023-02-28T01:09:21;100305.94;;;-0.10;85.80
77685;BME280;66844;46.092;18.268;2023-02-28T01:09:53;100304.19;;;-0.11;85.60
77685;BME280;66844;46.092;18.268;2023-02-28T01:10:25;100312.03;;;-0.06;85.44
77685;BME280;66844;46.092;18.268;2023-02-28T01:10:57;100306.84;;;-0.12;85.33
77685;BME280;66844;46.092;18.268;2023-02-28T01:11:29;100317.28;;;-0.06;86.01
77685;BME280;66844;46.092;18.268;2023-02-28T01:12:01;100313.78;;;-0.14;85.71
77685;BME280;66844;46.092;18.268;2023-02-28T01:12:33;100311.19;;;-0.13;86.24
77685;BME280;66844;46.092;18.268;2023-02-28T01:13:05;100304.22;;;-0.14;86.08
77685;BME280;66844;46.092;18.268;2023-02-28T01:13:37;100295.50;;;-0.20;86.13
77685;BME280;66844;46.092;18.268;2023-02-28T01:14:17;100309.44;;;-0.12;85.30
77685;BME280;66844;46.092;18.268;2023-02-28T01:14:49;100313.78;;;-0.05;85.42
77685;BME280;66844;46.092;18.268;2023-02-28T01:15:21;100302.47;;;-0.06;85.58
77685;BME280;66844;46.092;18.268;2023-02-28T01:15:55;100302.47;;;-0.15;85.44
77685;BME280;66844;46.092;18.268;2023-02-28T01:16:28;100308.59;;;-0.20;86.22
77685;BME280;66844;46.092;18.268;2023-02-28T01:17:00;100302.50;;;-0.24;85.80
77685;BME280;66844;46.092;18.268;2023-02-28T01:17:32;100302.47;;;-0.18;85.75
77685;BME280;66844;46.092;18.268;2023-02-28T01:18:04;100303.34;;;-0.16;85.84
77685;BME280;66844;46.092;18.268;2023-02-28T01:18:36;100303.38;;;-0.19;86.13
77685;BME280;66844;46.092;18.268;2023-02-28T01:19:08;100304.22;;;-0.18;85.92
77685;BME280;66844;46.092;18.268;2023-02-28T01:19:40;100305.97;;;-0.17;86.22
77685;BME280;66844;46.092;18.268;2023-02-28T01:20:12;100298.13;;;-0.22;85.72
77685;BME280;66844;46.092;18.268;2023-02-28T01:20:44;100305.97;;;-0.20;85.97
77685;BME280;66844;46.092;18.268;2023-02-28T01:21:20;100305.09;;;-0.18;86.31
77685;BME280;66844;46.092;18.268;2023-02-28T01:21:52;100292.91;;;-0.20;85.92
77685;BME280;66844;46.092;18.268;2023-02-28T01:22:23;100298.13;;;-0.19;86.42
77685;BME280;66844;46.092;18.268;2023-02-28T01:22:55;100296.38;;;-0.15;86.16
77685;BME280;66844;46.092;18.268;2023-02-28T01:23:27;100305.09;;;-0.13;85.61
77685;BME280;66844;46.092;18.268;2023-02-28T01:23:59;100304.22;;;-0.12;86.56
77685;BME280;66844;46.092;18.268;2023-02-28T01:24:31;100305.06;;;-0.15;85.65
77685;BME280;66844;46.092;18.268;2023-02-28T01:25:05;100297.25;;;-0.22;86.48
77685;BME280;66844;46.092;18.268;2023-02-28T01:25:37;100299.00;;;-0.20;86.32
77685;BME280;66844;46.092;18.268;2023-02-28T01:26:19;100299.88;;;-0.21;85.92
77685;BME280;66844;46.092;18.268;2023-02-28T01:26:51;100297.25;;;-0.18;86.17
77685;BME280;66844;46.092;18.268;2023-02-28T01:27:22;100304.22;;;-0.18;85.75
77685;BME280;66844;46.092;18.268;2023-02-28T01:27:54;100298.16;;;-0.26;85.87
77685;BME280;66844;46.092;18.268;2023-02-28T01:28:26;100295.50;;;-0.20;86.48
77685;BME280;66844;46.092;18.268;2023-02-28T01:28:58;100295.50;;;-0.22;86.37
77685;BME280;66844;46.092;18.268;2023-02-28T01:29:30;100301.59;;;-0.18;85.77
77685;BME280;66844;46.092;18.268;2023-02-28T01:30:03;100289.41;;;-0.21;85.89
77685;BME280;66844;46.092;18.268;2023-02-28T01:30:36;100296.41;;;-0.23;86.09
77685;BME280;66844;46.092;18.268;2023-02-28T01:31:09;100300.75;;;-0.23;86.66
77685;BME280;66844;46.092;18.268;2023-02-28T01:31:40;100295.50;;;-0.20;86.21
77685;BME280;66844;46.092;18.268;2023-02-28T01:32:12;100294.66;;;-0.27;85.90
77685;BME280;66844;46.092;18.268;2023-02-28T01:32:44;100296.41;;;-0.27;86.21
77685;BME280;66844;46.092;18.268;2023-02-28T01:33:16;100292.03;;;-0.27;86.69
77685;BME280;66844;46.092;18.268;2023-02-28T01:33:48;100295.53;;;-0.26;86.16
77685;BME280;66844;46.092;18.268;2023-02-28T01:34:20;100294.66;;;-0.33;86.52
77685;BME280;66844;46.092;18.268;2023-02-28T01:34:52;100290.28;;;-0.23;86.36
77685;BME280;66844;46.092;18.268;2023-02-28T01:35:24;100289.41;;;-0.28;86.19
77685;BME280;66844;46.092;18.268;2023-02-28T01:36:04;100288.53;;;-0.26;86.57
77685;BME280;66844;46.092;18.268;2023-02-28T01:36:36;100281.59;;;-0.30;86.53
77685;BME280;66844;46.092;18.268;2023-02-28T01:37:08;100290.31;;;-0.43;87.04
77685;BME280;66844;46.092;18.268;2023-02-28T01:37:39;100290.28;;;-0.37;87.50
77685;BME280;66844;46.092;18.268;2023-02-28T01:38:11;100286.81;;;-0.33;86.80
77685;BME280;66844;46.092;18.268;2023-02-28T01:38:53;100296.41;;;-0.35;87.12
77685;BME280;66844;46.092;18.268;2023-02-28T01:39:25;100291.16;;;-0.36;87.49
77685;BME280;66844;46.092;18.268;2023-02-28T01:39:57;100292.03;;;-0.33;87.41
77685;BME280;66844;46.092;18.268;2023-02-28T01:40:29;100280.72;;;-0.38;87.17
77685;BME280;66844;46.092;18.268;2023-02-28T01:41:02;100286.81;;;-0.36;87.11
77685;BME280;66844;46.092;18.268;2023-02-28T01:41:34;100282.47;;;-0.31;87.24
77685;BME280;66844;46.092;18.268;2023-02-28T01:42:09;100291.19;;;-0.30;86.83
77685;BME280;66844;46.092;18.268;2023-02-28T01:42:41;100284.22;;;-0.30;86.68
77685;BME280;66844;46.092;18.268;2023-02-28T01:43:30;100290.31;;;-0.34;87.11
77685;BME280;66844;46.092;18.268;2023-02-28T01:45:22;100295.53;;;-0.28;87.23
77685;BME280;66844;46.092;18.268;2023-02-28T01:45:57;100292.91;;;-0.29;87.43
77685;BME280;66844;46.092;18.268;2023-02-28T01:46:34;100280.72;;;-0.27;87.12
77685;BME280;66844;46.092;18.268;2023-02-28T01:47:06;100289.44;;;-0.27;86.95
77685;BME280;66844;46.092;18.268;2023-02-28T01:47:42;100291.16;;;-0.29;87.11
77685;BME280;66844;46.092;18.268;2023-02-28T01:48:15;100295.50;;;-0.25;86.68
77685;BME280;66844;46.092;18.268;2023-02-28T01:48:53;100288.53;;;-0.24;86.71
77685;BME280;66844;46.092;18.268;2023-02-28T01:49:26;100292.03;;;-0.27;87.02
77685;BME280;66844;46.092;18.268;2023-02-28T01:49:59;100278.97;;;-0.33;86.96
77685;BME280;66844;46.092;18.268;2023-02-28T01:50:37;100288.53;;;-0.26;87.00
77685;BME280;66844;46.092;18.268;2023-02-28T01:51:15;100284.19;;;-0.24;86.96
77685;BME280;66844;46.092;18.268;2023-02-28T01:51:51;100290.28;;;-0.20;86.16
77685;BME280;66844;46.092;18.268;2023-02-28T01:52:27;100288.53;;;-0.20;86.86
77685;BME280;66844;46.092;18.268;2023-02-28T01:53:03;100291.16;;;-0.20;86.23
77685;BME280;66844;46.092;18.268;2023-02-28T01:53:45;100286.78;;;-0.21;86.50
77685;BME280;66844;46.092;18.268;2023-02-28T01:54:24;100292.91;;;-0.19;86.20
77685;BME280;66844;46.092;18.268;2023-02-28T01:55:00;100291.16;;;-0.21;86.35
77685;BME280;66844;46.092;18.268;2023-02-28T01:55:34;100297.25;;;-0.18;86.38
77685;BME280;66844;46.092;18.268;2023-02-28T01:56:10;100294.63;;;-0.21;86.54
77685;BME280;66844;46.092;18.268;2023-02-28T01:56:55;100284.22;;;-0.34;86.48
77685;BME280;66844;46.092;18.268;2023-02-28T01:57:33;100286.81;;;-0.31;86.78
77685;BME280;66844;46.092;18.268;2023-02-28T01:58:09;100287.69;;;-0.31;86.93
77685;BME280;66844;46.092;18.268;2023-02-28T01:58:41;100288.56;;;-0.36;86.90
77685;BME280;66844;46.092;18.268;2023-02-28T01:59:22;100295.50;;;-0.37;87.31
77685;BME280;66844;46.092;18.268;2023-02-28T02:00:04;100278.97;;;-0.40;87.46
77685;BME280;66844;46.092;18.268;2023-02-28T02:00:38;100284.22;;;-0.37;87.09
77685;BME280;66844;46.092;18.268;2023-02-28T02:01:12;100283.31;;;-0.32;87.11
77685;BME280;66844;46.092;18.268;2023-02-28T02:01:53;100281.59;;;-0.36;87.40
77685;BME280;66844;46.092;18.268;2023-02-28T02:02:27;100277.22;;;-0.35;87.40
77685;BME280;66844;46.092;18.268;2023-02-28T02:03:07;100287.69;;;-0.32;87.16
77685;BME280;66844;46.092;18.268;2023-02-28T02:03:40;100292.06;;;-0.34;87.33
77685;BME280;66844;46.092;18.268;2023-02-28T02:04:12;100285.06;;;-0.37;87.29
77685;BME280;66844;46.092;18.268;2023-02-28T02:05:24;100285.06;;;-0.40;87.02
77685;BME280;66844;46.092;18.268;2023-02-28T02:05:57;100287.69;;;-0.34;87.25
77685;BME280;66844;46.092;18.268;2023-02-28T02:06:40;100287.66;;;-0.29;86.69
77685;BME280;66844;46.092;18.268;2023-02-28T02:07:14;100283.31;;;-0.29;87.13
77685;BME280;66844;46.092;18.268;2023-02-28T02:07:49;100283.31;;;-0.29;87.28
77685;BME280;66844;46.092;18.268;2023-02-28T02:08:25;100286.81;;;-0.30;87.23
77685;BME280;66844;46.092;18.268;2023-02-28T02:08:57;100278.09;;;-0.29;86.67
77685;BME280;66844;46.092;18.268;2023-02-28T02:09:29;100285.06;;;-0.26;86.60
77685;BME280;66844;46.092;18.268;2023-02-28T02:10:42;100269.38;;;-0.37;86.84
77685;BME280;66844;46.092;18.268;2023-02-28T02:11:18;100284.19;;;-0.36;86.69
77685;BME280;66844;46.092;18.268;2023-02-28T02:11:50;100282.47;;;-0.31;87.06
77685;BME280;66844;46.092;18.268;2023-02-28T02:15:11;100284.22;;;-0.39;87.41
77685;BME280;66844;46.092;18.268;2023-02-28T02:17:39;100283.34;;;-0.35;87.10
77685;BME280;66844;46.092;18.268;2023-02-28T02:24:02;100285.06;;;-0.28;86.57
77685;BME280;66844;46.092;18.268;2023-02-28T02:24:59;100282.44;;;-0.29;86.68
77685;BME280;66844;46.092;18.268;2023-02-28T02:25:45;100280.72;;;-0.32;86.78
77685;BME280;66844;46.092;18.268;2023-02-28T02:29:52;100281.56;;;-0.28;87.11
77685;BME280;66844;46.092;18.268;2023-02-28T02:30:48;100265.91;;;-0.27;86.36
77685;BME280;66844;46.092;18.268;2023-02-28T02:35:31;100285.06;;;-0.31;86.48
77685;BME280;66844;46.092;18.268;2023-02-28T02:36:51;100282.44;;;-0.37;87.23
77685;BME280;66844;46.092;18.268;2023-02-28T02:37:40;100274.63;;;-0.38;86.64
77685;BME280;66844;46.092;18.268;2023-02-28T02:38:50;100282.44;;;-0.28;86.12
77685;BME280;66844;46.092;18.268;2023-02-28T02:39:37;100279.84;;;-0.28;85.79
77685;BME280;66844;46.092;18.268;2023-02-28T02:41:59;100284.19;;;-0.27;86.10
77685;BME280;66844;46.092;18.268;2023-02-28T02:42:52;100285.91;;;-0.26;86.45
77685;BME280;66844;46.092;18.268;2023-02-28T02:43:56;100284.19;;;-0.25;86.15
77685;BME280;66844;46.092;18.268;2023-02-28T02:44:43;100280.72;;;-0.27;86.23
77685;BME280;66844;46.092;18.268;2023-02-28T02:45:39;100285.06;;;-0.28;86.18
77685;BME280;66844;46.092;18.268;2023-02-28T02:46:19;100278.97;;;-0.27;85.42
77685;BME280;66844;46.092;18.268;2023-02-28T02:46:58;100275.50;;;-0.30;85.43
77685;BME280;66844;46.092;18.268;2023-02-28T02:47:33;100278.09;;;-0.33;86.34
77685;BME280;66844;46.092;18.268;2023-02-28T02:48:11;100284.19;;;-0.36;86.50
77685;BME280;66844;46.092;18.268;2023-02-28T02:48:46;100280.72;;;-0.38;85.80
77685;BME280;66844;46.092;18.268;2023-02-28T02:49:31;100283.34;;;-0.38;86.08
77685;BME280;66844;46.092;18.268;2023-02-28T02:50:12;100285.09;;;-0.38;86.54
77685;BME280;66844;46.092;18.268;2023-02-28T02:50:49;100278.09;;;-0.33;86.10
77685;BME280;66844;46.092;18.268;2023-02-28T02:51:24;100282.44;;;-0.25;86.21
77685;BME280;66844;46.092;18.268;2023-02-28T02:51:58;100289.44;;;-0.27;85.88
77685;BME280;66844;46.092;18.268;2023-02-28T02:52:42;100292.03;;;-0.27;85.80
77685;BME280;66844;46.092;18.268;2023-02-28T02:53:21;100280.72;;;-0.27;86.08
77685;BME280;66844;46.092;18.268;2023-02-28T02:54:02;100293.78;;;-0.29;86.19
77685;BME280;66844;46.092;18.268;2023-02-28T02:54:37;100282.47;;;-0.31;86.14
77685;BME280;66844;46.092;18.268;2023-02-28T02:55:13;100289.44;;;-0.27;86.41
77685;BME280;66844;46.092;18.268;2023-02-28T02:55:48;100292.03;;;-0.25;85.96
77685;BME280;66844;46.092;18.268;2023-02-28T02:56:28;100291.16;;;-0.26;85.72
77685;BME280;66844;46.092;18.268;2023-02-28T02:57:10;100286.78;;;-0.25;85.98
77685;BME280;66844;46.092;18.268;2023-02-28T02:57:49;100285.94;;;-0.30;85.76
77685;BME280;66844;46.092;18.268;2023-02-28T02:58:31;100281.59;;;-0.31;85.71
77685;BME280;66844;46.092;18.268;2023-02-28T02:59:08;100287.69;;;-0.28;86.12
77685;BME280;66844;46.092;18.268;2023-02-28T02:59:41;100286.78;;;-0.25;86.02
77685;BME280;66844;46.092;18.268;2023-02-28T03:00:17;100289.44;;;-0.30;85.80
77685;BME280;66844;46.092;18.268;2023-02-28T03:00:56;100286.81;;;-0.30;86.02
77685;BME280;66844;46.092;18.268;2023-02-28T03:01:31;100291.16;;;-0.26;85.70
77685;BME280;66844;46.092;18.268;2023-02-28T03:02:07;100286.81;;;-0.27;85.23
77685;BME280;66844;46.092;18.268;2023-02-28T03:02:41;100283.34;;;-0.30;85.08
77685;BME280;66844;46.092;18.268;2023-02-28T03:03:18;100287.66;;;-0.22;85.39
77685;BME280;66844;46.092;18.268;2023-02-28T03:03:52;100294.63;;;-0.21;85.38
77685;BME280;66844;46.092;18.268;2023-02-28T03:04:29;100295.53;;;-0.19;85.27
77685;BME280;66844;46.092;18.268;2023-02-28T03:05:12;100295.53;;;-0.19;85.56
77685;BME280;66844;46.092;18.268;2023-02-28T03:05:48;100292.03;;;-0.24;85.82
77685;BME280;66844;46.092;18.268;2023-02-28T03:06:20;100293.78;;;-0.23;85.92
77685;BME280;66844;46.092;18.268;2023-02-28T03:06:52;100298.13;;;-0.23;85.78
77685;BME280;66844;46.092;18.268;2023-02-28T03:07:27;100294.63;;;-0.25;85.43
77685;BME280;66844;46.092;18.268;2023-02-28T03:07:59;100300.72;;;-0.22;85.94
77685;BME280;66844;46.092;18.268;2023-02-28T03:08:37;100292.91;;;-0.25;85.79
77685;BME280;66844;46.092;18.268;2023-02-28T03:09:09;100300.75;;;-0.29;85.42
77685;BME280;66844;46.092;18.268;2023-02-28T03:09:40;100286.81;;;-0.30;85.14
77685;BME280;66844;46.092;18.268;2023-02-28T03:10:28;100299.00;;;-0.24;85.49
77685;BME280;66844;46.092;18.268;2023-02-28T03:11:05;100295.50;;;-0.29;85.22
77685;BME280;66844;46.092;18.268;2023-02-28T03:11:38;100295.50;;;-0.29;85.57
77685;BME280;66844;46.092;18.268;2023-02-28T03:12:12;100297.28;;;-0.31;85.22
77685;BME280;66844;46.092;18.268;2023-02-28T03:12:56;100293.78;;;-0.30;84.78
77685;BME280;66844;46.092;18.268;2023-02-28T03:15:18;100299.88;;;-0.21;85.06
77685;BME280;66844;46.092;18.268;2023-02-28T03:16:32;100292.03;;;-0.25;85.26
77685;BME280;66844;46.092;18.268;2023-02-28T03:18:13;100284.22;;;-0.34;84.76
77685;BME280;66844;46.092;18.268;2023-02-28T03:20:45;100279.00;;;-0.42;84.47
77685;BME280;66844;46.092;18.268;2023-02-28T03:20:52;100290.28;;;-0.37;84.84
77685;BME280;66844;46.092;18.268;2023-02-28T03:21:32;100297.28;;;-0.36;85.17
77685;BME280;66844;46.092;18.268;2023-02-28T03:23:21;100294.66;;;-0.31;85.12
77685;BME280;66844;46.092;18.268;2023-02-28T03:25:29;100282.47;;;-0.40;85.03
77685;BME280;66844;46.092;18.268;2023-02-28T03:26:07;100281.59;;;-0.43;85.17
77685;BME280;66844;46.092;18.268;2023-02-28T03:26:52;100280.72;;;-0.42;85.62
77685;BME280;66844;46.092;18.268;2023-02-28T03:30:14;100285.09;;;-0.38;85.12
77685;BME280;66844;46.092;18.268;2023-02-28T03:30:54;100292.91;;;-0.38;84.58
77685;BME280;66844;46.092;18.268;2023-02-28T03:31:47;100289.44;;;-0.37;85.09
77685;BME280;66844;46.092;18.268;2023-02-28T03:32:27;100285.06;;;-0.35;85.07
77685;BME280;66844;46.092;18.268;2023-02-28T03:33:11;100296.41;;;-0.30;84.85